EmailTwitter


Observations de surface / Québec / CYUL (71627)

Régions: Québec | Canada | États-Unis | Europe | France | UK | Ailleurs
Station
Affichage
Infos & localisation pour CYUL (71627) | Aide pour décoder les METARs

Observations prises le 2019-01-16 à 08H00 UTC à MONTREAL INTL A, QB (CYUL)

Etat du ciel: couvert.

Obstacle(s) à la visibilité: faible neige.

Température: -1.0 Celsius

Point de rosée: -3.0 Celsius

Humidité relative: 86%

Facteur vent: -8.

Vents: Sud-sud-ouest à 30 km/h ou 16 noeuds.

Pression au niveau moyen de la mer: 101.02 kilopascals.

Calage altimétrique: 100.98 kilopascals ou 29.82 pouces de mercure.

Visibilité horizontale: 15.00 milles terrestres ou 24.00 kilomètres.

Hauteur du plafond: 701 mètres ( 2300 pieds ).

Observation METAR:

CYUL 160800Z 20016KT 15SM -SN FEW014 OVC023 M01/M03 A2982 RMK SC1SC7 SLP102=